sensor_id;sensor_type;location;lat;lon;timestamp;P1;durP1;ratioP1;P2;durP2;ratioP2
64500;SDS011;50874;24.150;-110.320;2022-10-31T00:00:29;13.60;;;1.95;;
64500;SDS011;50874;24.150;-110.320;2022-10-31T00:02:56;6.10;;;1.83;;
64500;SDS011;50874;24.150;-110.320;2022-10-31T00:05:22;7.43;;;1.77;;
64500;SDS011;50874;24.150;-110.320;2022-10-31T00:07:51;8.20;;;1.92;;
64500;SDS011;50874;24.150;-110.320;2022-10-31T00:10:18;3.95;;;1.58;;
64500;SDS011;50874;24.150;-110.320;2022-10-31T00:12:45;10.13;;;1.77;;
64500;SDS011;50874;24.150;-110.320;2022-10-31T00:15:11;8.00;;;1.80;;
64500;SDS011;50874;24.150;-110.320;2022-10-31T00:17:38;7.13;;;1.67;;
64500;SDS011;50874;24.150;-110.320;2022-10-31T00:20:04;16.45;;;1.77;;
64500;SDS011;50874;24.150;-110.320;2022-10-31T00:22:31;16.70;;;1.70;;
64500;SDS011;50874;24.150;-110.320;2022-10-31T00:24:57;8.18;;;2.45;;
64500;SDS011;50874;24.150;-110.320;2022-10-31T00:27:24;7.00;;;1.48;;
64500;SDS011;50874;24.150;-110.320;2022-10-31T00:29:50;7.60;;;1.67;;
64500;SDS011;50874;24.150;-110.320;2022-10-31T00:32:17;2.83;;;1.50;;
64500;SDS011;50874;24.150;-110.320;2022-10-31T00:34:43;15.18;;;1.70;;
64500;SDS011;50874;24.150;-110.320;2022-10-31T00:37:10;5.97;;;1.30;;
64500;SDS011;50874;24.150;-110.320;2022-10-31T00:39:36;17.10;;;3.17;;
64500;SDS011;50874;24.150;-110.320;2022-10-31T00:42:02;8.55;;;1.45;;
64500;SDS011;50874;24.150;-110.320;2022-10-31T00:44:29;4.80;;;1.50;;
64500;SDS011;50874;24.150;-110.320;2022-10-31T00:46:55;9.30;;;1.95;;
64500;SDS011;50874;24.150;-110.320;2022-10-31T00:49:22;11.55;;;2.13;;
64500;SDS011;50874;24.150;-110.320;2022-10-31T00:51:48;5.20;;;1.42;;
64500;SDS011;50874;24.150;-110.320;2022-10-31T00:54:15;11.57;;;1.63;;
64500;SDS011;50874;24.150;-110.320;2022-10-31T00:56:41;14.57;;;2.38;;
64500;SDS011;50874;24.150;-110.320;2022-10-31T00:59:07;14.15;;;2.10;;
64500;SDS011;50874;24.150;-110.320;2022-10-31T01:01:34;4.95;;;1.92;;
64500;SDS011;50874;24.150;-110.320;2022-10-31T01:04:00;11.27;;;2.45;;
64500;SDS011;50874;24.150;-110.320;2022-10-31T01:06:27;11.95;;;2.50;;
64500;SDS011;50874;24.150;-110.320;2022-10-31T01:08:53;13.45;;;3.35;;
64500;SDS011;50874;24.150;-110.320;2022-10-31T01:11:21;18.67;;;4.22;;
64500;SDS011;50874;24.150;-110.320;2022-10-31T01:13:52;10.82;;;3.17;;
64500;SDS011;50874;24.150;-110.320;2022-10-31T01:16:20;13.15;;;2.70;;
64500;SDS011;50874;24.150;-110.320;2022-10-31T01:18:48;15.57;;;3.45;;
64500;SDS011;50874;24.150;-110.320;2022-10-31T01:23:45;17.80;;;2.33;;
64500;SDS011;50874;24.150;-110.320;2022-10-31T01:26:16;11.73;;;1.90;;
64500;SDS011;50874;24.150;-110.320;2022-10-31T01:28:48;15.37;;;2.07;;
64500;SDS011;50874;24.150;-110.320;2022-10-31T01:31:17;17.98;;;2.00;;
64500;SDS011;50874;24.150;-110.320;2022-10-31T01:33:44;22.23;;;2.53;;
64500;SDS011;50874;24.150;-110.320;2022-10-31T01:36:12;8.02;;;2.28;;
64500;SDS011;50874;24.150;-110.320;2022-10-31T01:38:41;19.92;;;2.30;;
64500;SDS011;50874;24.150;-110.320;2022-10-31T01:41:08;12.68;;;2.40;;
64500;SDS011;50874;24.150;-110.320;2022-10-31T01:43:49;12.45;;;2.75;;
64500;SDS011;50874;24.150;-110.320;2022-10-31T01:46:30;14.98;;;2.60;;
64500;SDS011;50874;24.150;-110.320;2022-10-31T01:49:03;14.15;;;2.72;;
64500;SDS011;50874;24.150;-110.320;2022-10-31T01:51:36;10.00;;;2.35;;
64500;SDS011;50874;24.150;-110.320;2022-10-31T01:54:08;10.90;;;2.20;;
64500;SDS011;50874;24.150;-110.320;2022-10-31T01:56:38;13.63;;;2.53;;
64500;SDS011;50874;24.150;-110.320;2022-10-31T01:59:08;14.82;;;2.70;;
64500;SDS011;50874;24.150;-110.320;2022-10-31T02:01:37;8.13;;;2.17;;
64500;SDS011;50874;24.150;-110.320;2022-10-31T02:04:03;14.18;;;2.03;;
64500;SDS011;50874;24.150;-110.320;2022-10-31T02:09:20;17.13;;;2.85;;
64500;SDS011;50874;24.150;-110.320;2022-10-31T02:11:49;7.88;;;2.75;;
64500;SDS011;50874;24.150;-110.320;2022-10-31T02:14:18;10.77;;;2.28;;
64500;SDS011;50874;24.150;-110.320;2022-10-31T02:16:48;13.07;;;2.70;;
64500;SDS011;50874;24.150;-110.320;2022-10-31T02:19:28;21.00;;;3.45;;
64500;SDS011;50874;24.150;-110.320;2022-10-31T02:33:43;21.83;;;3.85;;
64500;SDS011;50874;24.150;-110.320;2022-10-31T02:36:51;23.02;;;3.58;;
64500;SDS011;50874;24.150;-110.320;2022-10-31T02:47:24;16.67;;;2.67;;
64500;SDS011;50874;24.150;-110.320;2022-10-31T02:49:55;14.60;;;2.78;;
64500;SDS011;50874;24.150;-110.320;2022-10-31T02:54:54;19.70;;;2.67;;
64500;SDS011;50874;24.150;-110.320;2022-10-31T02:57:23;11.50;;;2.47;;
64500;SDS011;50874;24.150;-110.320;2022-10-31T02:59:54;13.82;;;2.85;;
64500;SDS011;50874;24.150;-110.320;2022-10-31T03:02:46;23.38;;;3.38;;
64500;SDS011;50874;24.150;-110.320;2022-10-31T03:11:05;21.42;;;2.80;;
64500;SDS011;50874;24.150;-110.320;2022-10-31T03:13:34;17.52;;;3.40;;
64500;SDS011;50874;24.150;-110.320;2022-10-31T03:16:08;21.50;;;3.15;;
64500;SDS011;50874;24.150;-110.320;2022-10-31T03:18:59;13.18;;;3.15;;
64500;SDS011;50874;24.150;-110.320;2022-10-31T03:24:13;14.30;;;2.40;;
64500;SDS011;50874;24.150;-110.320;2022-10-31T03:26:42;11.88;;;2.40;;
64500;SDS011;50874;24.150;-110.320;2022-10-31T03:29:13;19.00;;;4.20;;
64500;SDS011;50874;24.150;-110.320;2022-10-31T03:31:46;14.82;;;3.05;;
64500;SDS011;50874;24.150;-110.320;2022-10-31T03:34:39;13.82;;;2.47;;
64500;SDS011;50874;24.150;-110.320;2022-10-31T03:37:09;20.35;;;3.10;;
64500;SDS011;50874;24.150;-110.320;2022-10-31T03:39:37;14.73;;;3.13;;
64500;SDS011;50874;24.150;-110.320;2022-10-31T03:42:10;12.32;;;3.90;;
64500;SDS011;50874;24.150;-110.320;2022-10-31T03:44:58;17.40;;;3.10;;
64500;SDS011;50874;24.150;-110.320;2022-10-31T03:47:28;25.33;;;3.90;;
64500;SDS011;50874;24.150;-110.320;2022-10-31T03:49:55;21.77;;;4.40;;
64500;SDS011;50874;24.150;-110.320;2022-10-31T03:52:30;13.98;;;3.60;;
64500;SDS011;50874;24.150;-110.320;2022-10-31T03:54:59;13.82;;;3.20;;
64500;SDS011;50874;24.150;-110.320;2022-10-31T04:00:20;18.55;;;3.42;;
64500;SDS011;50874;24.150;-110.320;2022-10-31T04:03:33;16.20;;;3.20;;
64500;SDS011;50874;24.150;-110.320;2022-10-31T04:05:39;11.55;;;3.20;;
64500;SDS011;50874;24.150;-110.320;2022-10-31T04:08:09;14.32;;;3.05;;
64500;SDS011;50874;24.150;-110.320;2022-10-31T04:10:39;23.40;;;3.25;;
64500;SDS011;50874;24.150;-110.320;2022-10-31T04:13:10;12.63;;;2.75;;
64500;SDS011;50874;24.150;-110.320;2022-10-31T04:15:40;11.07;;;2.97;;
64500;SDS011;50874;24.150;-110.320;2022-10-31T04:18:08;19.33;;;2.92;;
64500;SDS011;50874;24.150;-110.320;2022-10-31T04:20:38;22.08;;;3.75;;
64500;SDS011;50874;24.150;-110.320;2022-10-31T04:23:17;14.07;;;3.60;;
64500;SDS011;50874;24.150;-110.320;2022-10-31T04:25:51;14.25;;;3.60;;
64500;SDS011;50874;24.150;-110.320;2022-10-31T04:28:17;20.10;;;4.45;;
64500;SDS011;50874;24.150;-110.320;2022-10-31T04:30:44;17.60;;;3.38;;
64500;SDS011;50874;24.150;-110.320;2022-10-31T04:33:10;17.42;;;3.72;;
64500;SDS011;50874;24.150;-110.320;2022-10-31T04:35:37;12.65;;;2.50;;
64500;SDS011;50874;24.150;-110.320;2022-10-31T04:38:03;14.13;;;3.25;;
64500;SDS011;50874;24.150;-110.320;2022-10-31T04:40:30;25.80;;;4.07;;
64500;SDS011;50874;24.150;-110.320;2022-10-31T04:42:56;16.75;;;4.00;;
64500;SDS011;50874;24.150;-110.320;2022-10-31T04:45:23;21.75;;;2.90;;
64500;SDS011;50874;24.150;-110.320;2022-10-31T04:47:49;18.05;;;3.60;;
64500;SDS011;50874;24.150;-110.320;2022-10-31T04:50:16;16.45;;;3.65;;
64500;SDS011;50874;24.150;-110.320;2022-10-31T04:52:42;21.15;;;4.65;;
64500;SDS011;50874;24.150;-110.320;2022-10-31T04:55:10;24.00;;;4.43;;
64500;SDS011;50874;24.150;-110.320;2022-10-31T04:57:41;14.40;;;4.07;;
64500;SDS011;50874;24.150;-110.320;2022-10-31T05:00:08;27.73;;;3.92;;
64500;SDS011;50874;24.150;-110.320;2022-10-31T05:02:54;21.67;;;3.67;;
64500;SDS011;50874;24.150;-110.320;2022-10-31T05:05:23;18.27;;;3.65;;
64500;SDS011;50874;24.150;-110.320;2022-10-31T05:07:51;21.58;;;3.78;;
64500;SDS011;50874;24.150;-110.320;2022-10-31T05:10:19;16.38;;;3.22;;
64500;SDS011;50874;24.150;-110.320;2022-10-31T05:12:47;18.98;;;4.10;;
64500;SDS011;50874;24.150;-110.320;2022-10-31T05:15:15;15.82;;;3.63;;
64500;SDS011;50874;24.150;-110.320;2022-10-31T05:17:42;21.90;;;3.63;;
64500;SDS011;50874;24.150;-110.320;2022-10-31T05:20:09;15.23;;;3.17;;
64500;SDS011;50874;24.150;-110.320;2022-10-31T05:22:36;22.27;;;4.30;;
64500;SDS011;50874;24.150;-110.320;2022-10-31T05:25:07;14.57;;;3.47;;
64500;SDS011;50874;24.150;-110.320;2022-10-31T05:27:33;23.52;;;4.10;;
64500;SDS011;50874;24.150;-110.320;2022-10-31T05:30:00;33.38;;;4.65;;
64500;SDS011;50874;24.150;-110.320;2022-10-31T05:32:26;18.20;;;3.92;;
64500;SDS011;50874;24.150;-110.320;2022-10-31T05:34:54;18.92;;;4.38;;
64500;SDS011;50874;24.150;-110.320;2022-10-31T05:37:21;14.90;;;3.20;;
64500;SDS011;50874;24.150;-110.320;2022-10-31T05:39:47;21.75;;;3.55;;
64500;SDS011;50874;24.150;-110.320;2022-10-31T05:42:14;22.98;;;4.03;;
64500;SDS011;50874;24.150;-110.320;2022-10-31T05:44:40;15.70;;;3.63;;
64500;SDS011;50874;24.150;-110.320;2022-10-31T05:47:06;19.88;;;3.65;;
64500;SDS011;50874;24.150;-110.320;2022-10-31T05:49:33;15.27;;;3.35;;
64500;SDS011;50874;24.150;-110.320;2022-10-31T05:51:59;19.98;;;3.83;;
64500;SDS011;50874;24.150;-110.320;2022-10-31T05:54:26;18.90;;;3.70;;
64500;SDS011;50874;24.150;-110.320;2022-10-31T05:56:52;21.10;;;3.40;;
64500;SDS011;50874;24.150;-110.320;2022-10-31T05:59:18;16.23;;;3.55;;
64500;SDS011;50874;24.150;-110.320;2022-10-31T06:01:45;18.85;;;4.10;;
64500;SDS011;50874;24.150;-110.320;2022-10-31T06:04:11;26.75;;;3.42;;
64500;SDS011;50874;24.150;-110.320;2022-10-31T06:06:38;22.48;;;3.53;;
64500;SDS011;50874;24.150;-110.320;2022-10-31T06:09:04;20.63;;;3.92;;
64500;SDS011;50874;24.150;-110.320;2022-10-31T06:11:30;13.63;;;3.67;;
64500;SDS011;50874;24.150;-110.320;2022-10-31T06:13:57;17.77;;;4.35;;
64500;SDS011;50874;24.150;-110.320;2022-10-31T06:16:23;10.95;;;3.42;;
64500;SDS011;50874;24.150;-110.320;2022-10-31T06:18:50;21.73;;;3.83;;
64500;SDS011;50874;24.150;-110.320;2022-10-31T06:21:16;24.80;;;4.35;;
64500;SDS011;50874;24.150;-110.320;2022-10-31T06:23:43;32.83;;;4.05;;
64500;SDS011;50874;24.150;-110.320;2022-10-31T06:26:09;21.67;;;4.43;;
64500;SDS011;50874;24.150;-110.320;2022-10-31T06:28:36;17.88;;;3.05;;
64500;SDS011;50874;24.150;-110.320;2022-10-31T06:31:02;18.38;;;4.13;;
64500;SDS011;50874;24.150;-110.320;2022-10-31T06:33:28;18.23;;;4.07;;
64500;SDS011;50874;24.150;-110.320;2022-10-31T06:35:55;17.45;;;3.80;;
64500;SDS011;50874;24.150;-110.320;2022-10-31T06:38:22;19.83;;;3.25;;
64500;SDS011;50874;24.150;-110.320;2022-10-31T06:40:48;17.38;;;3.60;;
64500;SDS011;50874;24.150;-110.320;2022-10-31T06:43:14;21.77;;;3.95;;
64500;SDS011;50874;24.150;-110.320;2022-10-31T06:45:41;14.82;;;3.25;;
64500;SDS011;50874;24.150;-110.320;2022-10-31T06:48:07;19.52;;;3.92;;
64500;SDS011;50874;24.150;-110.320;2022-10-31T06:50:34;18.27;;;3.65;;
64500;SDS011;50874;24.150;-110.320;2022-10-31T06:53:00;19.17;;;4.22;;
64500;SDS011;50874;24.150;-110.320;2022-10-31T06:55:27;16.80;;;3.40;;
64500;SDS011;50874;24.150;-110.320;2022-10-31T06:57:57;20.02;;;4.10;;
64500;SDS011;50874;24.150;-110.320;2022-10-31T07:00:25;10.85;;;3.55;;
64500;SDS011;50874;24.150;-110.320;2022-10-31T07:02:56;23.58;;;3.60;;
64500;SDS011;50874;24.150;-110.320;2022-10-31T07:07:54;18.48;;;3.58;;
64500;SDS011;50874;24.150;-110.320;2022-10-31T07:10:22;20.52;;;3.33;;
64500;SDS011;50874;24.150;-110.320;2022-10-31T07:12:57;11.15;;;2.45;;
64500;SDS011;50874;24.150;-110.320;2022-10-31T07:15:25;20.25;;;3.67;;
64500;SDS011;50874;24.150;-110.320;2022-10-31T07:17:53;27.75;;;4.78;;
64500;SDS011;50874;24.150;-110.320;2022-10-31T07:20:19;18.20;;;3.50;;
64500;SDS011;50874;24.150;-110.320;2022-10-31T07:22:46;12.93;;;3.17;;
64500;SDS011;50874;24.150;-110.320;2022-10-31T07:25:12;15.90;;;3.22;;
64500;SDS011;50874;24.150;-110.320;2022-10-31T07:27:39;17.58;;;4.22;;
64500;SDS011;50874;24.150;-110.320;2022-10-31T07:30:07;14.27;;;3.08;;
64500;SDS011;50874;24.150;-110.320;2022-10-31T07:32:42;12.80;;;3.30;;
64500;SDS011;50874;24.150;-110.320;2022-10-31T07:35:11;18.85;;;3.80;;
64500;SDS011;50874;24.150;-110.320;2022-10-31T07:37:39;18.90;;;3.47;;
64500;SDS011;50874;24.150;-110.320;2022-10-31T07:40:06;14.25;;;4.80;;
64500;SDS011;50874;24.150;-110.320;2022-10-31T07:42:37;20.42;;;4.03;;
64500;SDS011;50874;24.150;-110.320;2022-10-31T07:45:05;24.85;;;3.63;;
64500;SDS011;50874;24.150;-110.320;2022-10-31T07:47:44;17.30;;;3.00;;
64500;SDS011;50874;24.150;-110.320;2022-10-31T07:50:12;17.33;;;5.22;;
64500;SDS011;50874;24.150;-110.320;2022-10-31T07:52:40;18.52;;;3.65;;
64500;SDS011;50874;24.150;-110.320;2022-10-31T07:55:07;23.38;;;3.85;;
64500;SDS011;50874;24.150;-110.320;2022-10-31T07:57:34;16.08;;;3.35;;
64500;SDS011;50874;24.150;-110.320;2022-10-31T08:00:04;14.27;;;3.10;;
64500;SDS011;50874;24.150;-110.320;2022-10-31T08:02:32;21.90;;;2.88;;
64500;SDS011;50874;24.150;-110.320;2022-10-31T08:04:59;16.45;;;3.42;;
64500;SDS011;50874;24.150;-110.320;2022-10-31T08:07:27;22.00;;;3.75;;
64500;SDS011;50874;24.150;-110.320;2022-10-31T08:09:54;16.88;;;3.30;;
64500;SDS011;50874;24.150;-110.320;2022-10-31T08:12:21;17.20;;;3.15;;
64500;SDS011;50874;24.150;-110.320;2022-10-31T08:14:48;16.85;;;3.30;;
64500;SDS011;50874;24.150;-110.320;2022-10-31T08:17:15;14.05;;;3.30;;
64500;SDS011;50874;24.150;-110.320;2022-10-31T08:19:41;14.02;;;3.25;;
64500;SDS011;50874;24.150;-110.320;2022-10-31T08:22:08;15.68;;;3.80;;
64500;SDS011;50874;24.150;-110.320;2022-10-31T08:24:34;22.80;;;3.75;;
64500;SDS011;50874;24.150;-110.320;2022-10-31T08:27:01;19.85;;;4.80;;
64500;SDS011;50874;24.150;-110.320;2022-10-31T08:29:27;18.48;;;3.45;;
64500;SDS011;50874;24.150;-110.320;2022-10-31T08:31:53;23.95;;;3.40;;
64500;SDS011;50874;24.150;-110.320;2022-10-31T08:34:20;17.17;;;3.45;;
64500;SDS011;50874;24.150;-110.320;2022-10-31T08:36:46;20.15;;;3.65;;
64500;SDS011;50874;24.150;-110.320;2022-10-31T08:39:13;23.88;;;3.88;;
64500;SDS011;50874;24.150;-110.320;2022-10-31T08:41:39;19.75;;;3.70;;
64500;SDS011;50874;24.150;-110.320;2022-10-31T08:44:05;23.40;;;4.70;;
64500;SDS011;50874;24.150;-110.320;2022-10-31T08:46:32;18.85;;;4.63;;
64500;SDS011;50874;24.150;-110.320;2022-10-31T08:48:59;18.00;;;4.00;;
64500;SDS011;50874;24.150;-110.320;2022-10-31T08:51:26;18.60;;;3.45;;
64500;SDS011;50874;24.150;-110.320;2022-10-31T08:53:52;19.85;;;3.20;;
64500;SDS011;50874;24.150;-110.320;2022-10-31T08:56:18;15.07;;;3.05;;
64500;SDS011;50874;24.150;-110.320;2022-10-31T08:58:45;12.88;;;3.72;;
64500;SDS011;50874;24.150;-110.320;2022-10-31T09:01:11;16.75;;;3.83;;
64500;SDS011;50874;24.150;-110.320;2022-10-31T09:03:38;21.20;;;4.00;;
64500;SDS011;50874;24.150;-110.320;2022-10-31T09:06:04;15.13;;;3.70;;
64500;SDS011;50874;24.150;-110.320;2022-10-31T09:08:34;11.77;;;4.15;;
64500;SDS011;50874;24.150;-110.320;2022-10-31T09:11:01;21.45;;;4.13;;
64500;SDS011;50874;24.150;-110.320;2022-10-31T09:13:28;16.40;;;3.47;;
64500;SDS011;50874;24.150;-110.320;2022-10-31T09:15:55;21.27;;;3.22;;
64500;SDS011;50874;24.150;-110.320;2022-10-31T09:18:24;19.08;;;4.03;;
64500;SDS011;50874;24.150;-110.320;2022-10-31T09:20:53;19.50;;;4.15;;
64500;SDS011;50874;24.150;-110.320;2022-10-31T09:23:20;20.55;;;4.78;;
64500;SDS011;50874;24.150;-110.320;2022-10-31T09:25:49;21.83;;;4.40;;
64500;SDS011;50874;24.150;-110.320;2022-10-31T09:28:18;17.98;;;3.63;;
64500;SDS011;50874;24.150;-110.320;2022-10-31T09:30:46;19.63;;;4.93;;
64500;SDS011;50874;24.150;-110.320;2022-10-31T09:33:13;12.60;;;2.95;;
64500;SDS011;50874;24.150;-110.320;2022-10-31T09:35:40;15.52;;;3.20;;
64500;SDS011;50874;24.150;-110.320;2022-10-31T09:38:14;17.95;;;3.58;;
64500;SDS011;50874;24.150;-110.320;2022-10-31T09:40:45;21.45;;;3.83;;
64500;SDS011;50874;24.150;-110.320;2022-10-31T09:52:11;17.58;;;3.95;;
64500;SDS011;50874;24.150;-110.320;2022-10-31T09:55:44;19.77;;;3.70;;
64500;SDS011;50874;24.150;-110.320;2022-10-31T09:58:07;19.10;;;3.80;;
64500;SDS011;50874;24.150;-110.320;2022-10-31T10:00:47;14.98;;;4.18;;
64500;SDS011;50874;24.150;-110.320;2022-10-31T10:06:01;16.48;;;3.58;;
64500;SDS011;50874;24.150;-110.320;2022-10-31T10:08:45;14.43;;;3.58;;
64500;SDS011;50874;24.150;-110.320;2022-10-31T10:11:49;17.25;;;3.70;;
64500;SDS011;50874;24.150;-110.320;2022-10-31T10:17:16;22.88;;;4.00;;
64500;SDS011;50874;24.150;-110.320;2022-10-31T10:23:06;24.48;;;4.75;;
64500;SDS011;50874;24.150;-110.320;2022-10-31T10:25:59;16.10;;;3.83;;
64500;SDS011;50874;24.150;-110.320;2022-10-31T10:28:36;24.30;;;3.90;;
64500;SDS011;50874;24.150;-110.320;2022-10-31T10:33:36;23.40;;;4.25;;
64500;SDS011;50874;24.150;-110.320;2022-10-31T10:36:42;14.25;;;3.05;;
64500;SDS011;50874;24.150;-110.320;2022-10-31T10:39:11;16.80;;;3.70;;
64500;SDS011;50874;24.150;-110.320;2022-10-31T10:42:00;24.25;;;4.45;;
64500;SDS011;50874;24.150;-110.320;2022-10-31T10:44:51;15.85;;;3.60;;
64500;SDS011;50874;24.150;-110.320;2022-10-31T10:47:43;12.40;;;4.38;;
64500;SDS011;50874;24.150;-110.320;2022-10-31T10:50:34;12.60;;;3.47;;
64500;SDS011;50874;24.150;-110.320;2022-10-31T10:58:26;23.00;;;3.78;;
64500;SDS011;50874;24.150;-110.320;2022-10-31T11:00:52;27.83;;;4.43;;
64500;SDS011;50874;24.150;-110.320;2022-10-31T11:03:21;19.38;;;3.90;;
64500;SDS011;50874;24.150;-110.320;2022-10-31T11:05:51;16.80;;;3.25;;
64500;SDS011;50874;24.150;-110.320;2022-10-31T11:08:27;23.58;;;4.20;;
64500;SDS011;50874;24.150;-110.320;2022-10-31T11:13:28;19.67;;;3.95;;
64500;SDS011;50874;24.150;-110.320;2022-10-31T11:18:24;16.85;;;4.72;;
64500;SDS011;50874;24.150;-110.320;2022-10-31T11:20:55;22.48;;;3.17;;
64500;SDS011;50874;24.150;-110.320;2022-10-31T11:23:24;23.60;;;5.85;;
64500;SDS011;50874;24.150;-110.320;2022-10-31T11:25:53;13.45;;;3.40;;
64500;SDS011;50874;24.150;-110.320;2022-10-31T11:28:22;24.00;;;3.47;;
64500;SDS011;50874;24.150;-110.320;2022-10-31T11:33:28;18.42;;;3.97;;
64500;SDS011;50874;24.150;-110.320;2022-10-31T11:36:00;13.80;;;3.40;;
64500;SDS011;50874;24.150;-110.320;2022-10-31T11:38:42;14.38;;;2.92;;
64500;SDS011;50874;24.150;-110.320;2022-10-31T11:41:23;14.88;;;4.13;;
64500;SDS011;50874;24.150;-110.320;2022-10-31T11:46:39;14.95;;;3.72;;
64500;SDS011;50874;24.150;-110.320;2022-10-31T11:49:13;20.85;;;3.88;;
64500;SDS011;50874;24.150;-110.320;2022-10-31T11:51:42;12.40;;;3.28;;
64500;SDS011;50874;24.150;-110.320;2022-10-31T11:54:18;11.85;;;3.40;;
64500;SDS011;50874;24.150;-110.320;2022-10-31T11:56:51;24.13;;;5.07;;
64500;SDS011;50874;24.150;-110.320;2022-10-31T11:59:22;21.92;;;3.28;;
64500;SDS011;50874;24.150;-110.320;2022-10-31T12:01:57;18.63;;;3.63;;
64500;SDS011;50874;24.150;-110.320;2022-10-31T12:04:30;20.65;;;3.80;;
64500;SDS011;50874;24.150;-110.320;2022-10-31T12:07:05;35.60;;;5.15;;
64500;SDS011;50874;24.150;-110.320;2022-10-31T12:09:35;19.08;;;3.90;;
64500;SDS011;50874;24.150;-110.320;2022-10-31T12:12:10;12.98;;;3.60;;
64500;SDS011;50874;24.150;-110.320;2022-10-31T12:22:40;15.70;;;3.17;;
64500;SDS011;50874;24.150;-110.320;2022-10-31T12:25:16;12.20;;;3.33;;
64500;SDS011;50874;24.150;-110.320;2022-10-31T12:30:50;17.85;;;3.83;;
64500;SDS011;50874;24.150;-110.320;2022-10-31T12:36:12;23.45;;;4.47;;
64500;SDS011;50874;24.150;-110.320;2022-10-31T12:57:32;14.60;;;4.10;;
64500;SDS011;50874;24.150;-110.320;2022-10-31T13:00:15;14.82;;;4.30;;
64500;SDS011;50874;24.150;-110.320;2022-10-31T13:10:25;20.38;;;5.32;;
64500;SDS011;50874;24.150;-110.320;2022-10-31T13:13:13;16.67;;;3.97;;
64500;SDS011;50874;24.150;-110.320;2022-10-31T13:21:25;24.23;;;5.05;;
64500;SDS011;50874;24.150;-110.320;2022-10-31T13:24:17;21.98;;;4.45;;
64500;SDS011;50874;24.150;-110.320;2022-10-31T13:27:01;22.85;;;4.43;;
64500;SDS011;50874;24.150;-110.320;2022-10-31T13:29:38;21.13;;;4.45;;
64500;SDS011;50874;24.150;-110.320;2022-10-31T13:32:12;26.73;;;4.45;;
64500;SDS011;50874;24.150;-110.320;2022-10-31T13:34:59;23.27;;;4.45;;
64500;SDS011;50874;24.150;-110.320;2022-10-31T13:37:38;60.63;;;7.60;;
64500;SDS011;50874;24.150;-110.320;2022-10-31T13:45:32;29.85;;;5.25;;
64500;SDS011;50874;24.150;-110.320;2022-10-31T13:48:17;21.98;;;4.47;;
64500;SDS011;50874;24.150;-110.320;2022-10-31T13:50:59;17.98;;;4.20;;
64500;SDS011;50874;24.150;-110.320;2022-10-31T13:53:39;29.52;;;4.40;;
64500;SDS011;50874;24.150;-110.320;2022-10-31T13:56:13;29.10;;;4.65;;
64500;SDS011;50874;24.150;-110.320;2022-10-31T13:58:54;34.42;;;4.63;;
64500;SDS011;50874;24.150;-110.320;2022-10-31T14:01:24;35.05;;;4.60;;
64500;SDS011;50874;24.150;-110.320;2022-10-31T14:04:01;29.48;;;4.88;;
64500;SDS011;50874;24.150;-110.320;2022-10-31T14:06:39;35.33;;;4.28;;
64500;SDS011;50874;24.150;-110.320;2022-10-31T14:09:21;39.53;;;6.88;;
64500;SDS011;50874;24.150;-110.320;2022-10-31T14:11:53;21.10;;;4.93;;
64500;SDS011;50874;24.150;-110.320;2022-10-31T14:14:22;34.05;;;5.00;;
64500;SDS011;50874;24.150;-110.320;2022-10-31T14:16:56;24.63;;;4.30;;
64500;SDS011;50874;24.150;-110.320;2022-10-31T14:19:23;29.38;;;4.32;;
64500;SDS011;50874;24.150;-110.320;2022-10-31T14:21:51;28.15;;;4.55;;
64500;SDS011;50874;24.150;-110.320;2022-10-31T14:26:54;36.78;;;4.03;;
64500;SDS011;50874;24.150;-110.320;2022-10-31T14:29:29;13.57;;;3.63;;
64500;SDS011;50874;24.150;-110.320;2022-10-31T14:51:01;14.75;;;3.28;;
64500;SDS011;50874;24.150;-110.320;2022-10-31T14:53:41;21.02;;;3.63;;
64500;SDS011;50874;24.150;-110.320;2022-10-31T14:56:22;16.88;;;3.40;;
64500;SDS011;50874;24.150;-110.320;2022-10-31T14:58:55;18.13;;;3.40;;
64500;SDS011;50874;24.150;-110.320;2022-10-31T15:03:55;17.83;;;3.30;;
64500;SDS011;50874;24.150;-110.320;2022-10-31T15:06:26;22.20;;;3.17;;
64500;SDS011;50874;24.150;-110.320;2022-10-31T15:09:20;26.13;;;2.95;;
64500;SDS011;50874;24.150;-110.320;2022-10-31T15:11:55;16.45;;;2.35;;
64500;SDS011;50874;24.150;-110.320;2022-10-31T15:14:27;7.10;;;1.88;;
64500;SDS011;50874;24.150;-110.320;2022-10-31T15:16:56;12.55;;;2.30;;
64500;SDS011;50874;24.150;-110.320;2022-10-31T15:19:26;13.23;;;2.50;;
64500;SDS011;50874;24.150;-110.320;2022-10-31T15:22:02;15.20;;;2.53;;
64500;SDS011;50874;24.150;-110.320;2022-10-31T15:24:34;11.48;;;2.05;;
64500;SDS011;50874;24.150;-110.320;2022-10-31T15:27:06;15.10;;;2.42;;
64500;SDS011;50874;24.150;-110.320;2022-10-31T15:29:53;9.98;;;2.08;;
64500;SDS011;50874;24.150;-110.320;2022-10-31T15:34:54;8.85;;;2.17;;
64500;SDS011;50874;24.150;-110.320;2022-10-31T15:37:26;10.50;;;2.05;;
64500;SDS011;50874;24.150;-110.320;2022-10-31T15:40:06;6.68;;;2.17;;
64500;SDS011;50874;24.150;-110.320;2022-10-31T15:42:40;11.48;;;2.33;;
64500;SDS011;50874;24.150;-110.320;2022-10-31T15:47:39;7.72;;;1.80;;
64500;SDS011;50874;24.150;-110.320;2022-10-31T15:50:27;7.47;;;1.95;;
64500;SDS011;50874;24.150;-110.320;2022-10-31T15:53:01;8.93;;;2.00;;
64500;SDS011;50874;24.150;-110.320;2022-10-31T15:55:29;6.63;;;1.85;;
64500;SDS011;50874;24.150;-110.320;2022-10-31T15:58:02;7.32;;;2.05;;
64500;SDS011;50874;24.150;-110.320;2022-10-31T16:00:35;8.55;;;2.17;;
64500;SDS011;50874;24.150;-110.320;2022-10-31T16:03:08;6.18;;;2.22;;
64500;SDS011;50874;24.150;-110.320;2022-10-31T16:05:55;10.80;;;2.10;;
64500;SDS011;50874;24.150;-110.320;2022-10-31T16:10:57;8.43;;;2.17;;
64500;SDS011;50874;24.150;-110.320;2022-10-31T16:13:28;10.90;;;2.42;;
64500;SDS011;50874;24.150;-110.320;2022-10-31T16:16:00;5.25;;;1.60;;
64500;SDS011;50874;24.150;-110.320;2022-10-31T16:18:30;11.93;;;1.85;;
64500;SDS011;50874;24.150;-110.320;2022-10-31T16:21:02;12.18;;;2.22;;
64500;SDS011;50874;24.150;-110.320;2022-10-31T16:23:29;7.68;;;1.95;;
64500;SDS011;50874;24.150;-110.320;2022-10-31T16:25:56;8.20;;;1.83;;
64500;SDS011;50874;24.150;-110.320;2022-10-31T16:28:26;9.50;;;1.88;;
64500;SDS011;50874;24.150;-110.320;2022-10-31T16:30:54;9.05;;;2.22;;
64500;SDS011;50874;24.150;-110.320;2022-10-31T16:33:23;10.63;;;2.15;;
64500;SDS011;50874;24.150;-110.320;2022-10-31T16:35:57;6.65;;;2.60;;
64500;SDS011;50874;24.150;-110.320;2022-10-31T16:38:23;13.63;;;2.10;;
64500;SDS011;50874;24.150;-110.320;2022-10-31T16:40:50;8.60;;;1.75;;
64500;SDS011;50874;24.150;-110.320;2022-10-31T16:43:18;10.98;;;2.28;;
64500;SDS011;50874;24.150;-110.320;2022-10-31T16:45:48;6.80;;;2.45;;
64500;SDS011;50874;24.150;-110.320;2022-10-31T16:48:19;10.80;;;1.90;;
64500;SDS011;50874;24.150;-110.320;2022-10-31T16:50:48;5.05;;;1.88;;
64500;SDS011;50874;24.150;-110.320;2022-10-31T16:53:18;9.15;;;2.00;;
64500;SDS011;50874;24.150;-110.320;2022-10-31T16:56:05;12.73;;;2.28;;
64500;SDS011;50874;24.150;-110.320;2022-10-31T16:58:38;7.13;;;1.90;;
64500;SDS011;50874;24.150;-110.320;2022-10-31T17:01:06;6.75;;;1.70;;